Lady Haya — ZCYI — position and weather

sailwx.info

Track history (hours):
 
Tides and Currents Weather Stations Pressure Air Temp Water Temp Dewpoint Dewpoint Depression Visibility Wind Speed Wind Dir Waves Ship Positions

Lady Haya

Last reported at 2018-Apr-16 07:31 UTC. Time now 2018-Apr-24 18:27 UTC.
Position N 37°23' W 000°56'.
Warning: this ship's position is 8 days out of date.

; draft 4.3 m.

Type: Other ship. MMSI: 319004600.

Date/timePositionNaut miles runAvg speedWind from/ knotsBaromVisibWave heightAir tempDewpointWater temp
2018-Apr-16 07:31N 37°23' W 000°56'313.6
2018-Apr-16 07:18N 37°25' W 000°53'414.4
2018-Apr-16 07:00N 37°27' W 000°49'1514.3
2018-Apr-16 05:56N 37°35' W 000°33'714.1
2018-Apr-16 05:26N 37°41' W 000°28'55514.0
2018-Apr-14 13:49N 44°02' E 008°26'414.1
2018-Apr-14 13:30N 44°05' E 008°31'713.9
2018-Apr-14 13:00N 44°09' E 008°38'714.5
2018-Apr-14 12:30N 44°14' E 008°46'815.0
2018-Apr-14 12:00N 44°18' E 008°55'5 9.3
2018-Apr-14 11:30N 44°23' E 008°57'2 4.1
2018-Apr-14 11:00N 44°24' E 008°55'0 0.0
2018-Apr-14 10:30N 44°24' E 008°55'0 0.0
2018-Apr-14 10:00N 44°24' E 008°55'0 0.0
2018-Apr-14 09:30N 44°24' E 008°55'  
Track history (hours):
 
Tides and Currents Weather Stations Pressure Air Temp Water Temp Dewpoint Dewpoint Depression Visibility Wind Speed Wind Dir Waves Ship Positions

Lady Haya

Last reported at 2018-Apr-16 07:31 UTC. Time now 2018-Apr-24 18:27 UTC.
Position N 37°23' W 000°56'.
Warning: this ship's position is 8 days out of date.

; draft 4.3 m.

Type: Other ship. MMSI: 319004600.

Date/timePositionNaut miles runAvg speedWind from/ knotsBaromVisibWave heightAir tempDewpointWater temp
2018-Apr-16 07:31N 37°23' W 000°56'313.6
2018-Apr-16 07:18N 37°25' W 000°53'414.4
2018-Apr-16 07:00N 37°27' W 000°49'1514.3
2018-Apr-16 05:56N 37°35' W 000°33'714.1
2018-Apr-16 05:26N 37°41' W 000°28'55514.0
2018-Apr-14 13:49N 44°02' E 008°26'414.1
2018-Apr-14 13:30N 44°05' E 008°31'713.9
2018-Apr-14 13:00N 44°09' E 008°38'714.5
2018-Apr-14 12:30N 44°14' E 008°46'815.0
2018-Apr-14 12:00N 44°18' E 008°55'5 9.3
2018-Apr-14 11:30N 44°23' E 008°57'2 4.1
2018-Apr-14 11:00N 44°24' E 008°55'0 0.0
2018-Apr-14 10:30N 44°24' E 008°55'0 0.0
2018-Apr-14 10:00N 44°24' E 008°55'0 0.0
2018-Apr-14 09:30N 44°24' E 008°55'  

Dump ship's entire track history